Time;durP1;ratioP1;P1;durP2;ratioP2;P2;SDS_P1;SDS_P2;PMS_P1;PMS_P2;Temp;Humidity;BMP_temperature;BMP_pressure;BME280_temperature;BME280_humidity;BME280_pressure;Samples;Min_cycle;Max_cycle;Signal;HPM_P1;HPM_P2
2022/04/07 00:00:37;;;;;;;15.52;4.63;;;;;;;;;;5065832;28;20506;-83
2022/04/07 00:03:03;;;;;;;12.50;4.20;;;;;;;;;;5092082;28;20045;-83
2022/04/07 00:05:29;;;;;;;18.60;4.50;;;;;;;;;;5060304;28;20097;-83
2022/04/07 00:07:55;;;;;;;13.35;4.47;;;;;;;;;;5075875;28;20174;-82
2022/04/07 00:10:21;;;;;;;13.23;4.72;;;;;;;;;;5068747;28;20138;-83
2022/04/07 00:12:47;;;;;;;17.42;4.60;;;;;;;;;;5073017;28;20160;-82
2022/04/07 00:15:14;;;;;;;13.77;4.40;;;;;;;;;;5070632;28;20512;-82
2022/04/07 00:17:40;;;;;;;16.35;4.50;;;;;;;;;;5073201;28;20048;-83
2022/04/07 00:20:06;;;;;;;18.27;5.95;;;;;;;;;;5084312;28;20095;-82
2022/04/07 00:22:34;;;;;;;18.13;4.78;;;;;;;;;;5072449;28;20109;-83
2022/04/07 00:25:00;;;;;;;17.10;5.13;;;;;;;;;;5087930;28;20483;-82
2022/04/07 00:27:26;;;;;;;15.50;4.55;;;;;;;;;;5057876;28;20052;-82
2022/04/07 00:29:52;;;;;;;19.52;5.03;;;;;;;;;;5074390;28;20044;-82
2022/04/07 00:32:18;;;;;;;21.70;5.43;;;;;;;;;;5074201;28;20062;-83
2022/04/07 00:34:46;;;;;;;21.35;5.65;;;;;;;;;;5063432;28;20045;-83
2022/04/07 00:37:13;;;;;;;16.73;5.03;;;;;;;;;;5091371;28;20106;-82
2022/04/07 00:39:39;;;;;;;16.05;4.68;;;;;;;;;;5080166;28;20090;-82
2022/04/07 00:42:07;;;;;;;19.98;5.00;;;;;;;;;;5074900;28;20044;-82
2022/04/07 00:44:33;;;;;;;18.08;4.93;;;;;;;;;;5066307;28;20069;-82
2022/04/07 00:46:59;;;;;;;17.90;5.13;;;;;;;;;;5075829;28;20051;-84
2022/04/07 00:49:25;;;;;;;16.42;4.68;;;;;;;;;;5073639;28;20041;-83
2022/04/07 00:51:51;;;;;;;19.27;5.15;;;;;;;;;;5071920;28;20041;-83
2022/04/07 00:54:18;;;;;;;14.02;5.10;;;;;;;;;;5073484;28;20040;-83
2022/04/07 00:56:44;;;;;;;19.05;5.40;;;;;;;;;;5093615;28;20045;-82
2022/04/07 00:59:13;;;;;;;18.10;4.70;;;;;;;;;;5080047;28;20035;-83
2022/04/07 01:01:39;;;;;;;23.25;5.88;;;;;;;;;;5077747;28;20048;-83
2022/04/07 01:04:05;;;;;;;22.45;6.15;;;;;;;;;;5073370;28;20123;-83
2022/04/07 01:06:31;;;;;;;21.35;5.20;;;;;;;;;;5079472;28;20456;-83
2022/04/07 01:08:57;;;;;;;17.85;5.30;;;;;;;;;;5075381;28;20097;-82
2022/04/07 01:11:26;;;;;;;21.45;5.60;;;;;;;;;;5074485;28;20044;-82
2022/04/07 01:13:52;;;;;;;16.40;4.97;;;;;;;;;;5070784;28;20091;-82
2022/04/07 01:16:19;;;;;;;19.65;5.30;;;;;;;;;;5077131;28;20048;-83
2022/04/07 01:18:46;;;;;;;19.98;5.60;;;;;;;;;;5076653;28;20048;-83
2022/04/07 01:21:12;;;;;;;16.40;5.10;;;;;;;;;;5085762;28;20063;-83
2022/04/07 01:23:39;;;;;;;17.52;5.50;;;;;;;;;;5066313;28;20067;-83
2022/04/07 01:26:05;;;;;;;20.00;5.07;;;;;;;;;;5079399;28;20073;-84
2022/04/07 01:28:32;;;;;;;19.83;5.78;;;;;;;;;;5062370;28;20496;-83
2022/04/07 01:30:58;;;;;;;19.48;5.38;;;;;;;;;;5070227;28;20052;-83
2022/04/07 01:33:24;;;;;;;19.13;5.28;;;;;;;;;;5064908;28;20036;-82
2022/04/07 01:35:51;;;;;;;17.20;4.95;;;;;;;;;;5068784;28;20510;-83
2022/04/07 01:38:18;;;;;;;17.77;4.88;;;;;;;;;;5073066;28;20040;-82
2022/04/07 01:40:45;;;;;;;22.85;5.85;;;;;;;;;;5072292;28;20074;-83
2022/04/07 01:43:12;;;;;;;24.02;6.15;;;;;;;;;;5069273;28;20465;-83
2022/04/07 01:45:39;;;;;;;25.55;5.78;;;;;;;;;;5065580;28;20044;-83
2022/04/07 01:48:07;;;;;;;18.55;5.07;;;;;;;;;;5069273;28;20474;-83
2022/04/07 01:50:34;;;;;;;21.73;5.40;;;;;;;;;;5061580;28;20079;-84
2022/04/07 01:53:01;;;;;;;21.77;5.57;;;;;;;;;;5075620;28;20491;-83
2022/04/07 01:55:27;;;;;;;20.20;5.78;;;;;;;;;;5077846;28;20408;-83
2022/04/07 01:57:56;;;;;;;21.90;5.63;;;;;;;;;;5071817;28;20392;-83
2022/04/07 02:00:22;;;;;;;23.45;5.72;;;;;;;;;;5080392;28;20164;-84
2022/04/07 02:02:49;;;;;;;22.85;5.40;;;;;;;;;;5059105;28;20037;-82
2022/04/07 02:05:15;;;;;;;21.20;5.78;;;;;;;;;;5077233;28;20067;-82
2022/04/07 02:07:42;;;;;;;14.93;4.85;;;;;;;;;;5072080;28;20074;-83
2022/04/07 02:10:09;;;;;;;22.13;5.75;;;;;;;;;;5088616;28;20555;-82
2022/04/07 02:12:37;;;;;;;18.67;5.70;;;;;;;;;;5072053;28;20052;-83
2022/04/07 02:15:06;;;;;;;19.77;5.53;;;;;;;;;;5067757;28;20051;-83
2022/04/07 02:17:32;;;;;;;20.85;6.07;;;;;;;;;;5077037;28;20119;-83
2022/04/07 02:19:59;;;;;;;20.70;6.13;;;;;;;;;;5061117;28;20045;-83
2022/04/07 02:22:28;;;;;;;22.52;5.35;;;;;;;;;;5083450;28;20097;-82
2022/04/07 02:24:54;;;;;;;19.65;5.22;;;;;;;;;;5062164;28;20045;-82
2022/04/07 02:27:21;;;;;;;18.35;5.00;;;;;;;;;;5078484;28;20047;-82
2022/04/07 02:29:47;;;;;;;19.70;4.88;;;;;;;;;;5071310;28;20477;-83
2022/04/07 02:32:13;;;;;;;18.30;5.07;;;;;;;;;;5061838;28;20051;-83
2022/04/07 02:34:39;;;;;;;19.63;5.30;;;;;;;;;;5059542;28;20037;-84
2022/04/07 02:37:06;;;;;;;14.50;4.63;;;;;;;;;;5065399;28;20048;-83
2022/04/07 02:39:32;;;;;;;22.73;5.60;;;;;;;;;;5082784;28;20043;-82
2022/04/07 02:41:58;;;;;;;20.92;5.78;;;;;;;;;;5078512;28;20040;-84
2022/04/07 02:44:24;;;;;;;23.42;6.22;;;;;;;;;;5066663;28;20127;-83
2022/04/07 02:46:50;;;;;;;23.88;5.90;;;;;;;;;;5069128;28;20040;-83
2022/04/07 02:49:17;;;;;;;21.77;5.35;;;;;;;;;;5061415;28;20048;-83
2022/04/07 02:51:44;;;;;;;22.55;5.18;;;;;;;;;;5067192;28;20048;-83
2022/04/07 02:54:10;;;;;;;18.95;4.72;;;;;;;;;;5068819;28;20083;-83
2022/04/07 02:56:36;;;;;;;23.33;5.43;;;;;;;;;;5071293;28;20041;-83
2022/04/07 02:59:02;;;;;;;22.30;5.93;;;;;;;;;;5068168;28;20048;-83
2022/04/07 03:01:28;;;;;;;18.02;4.85;;;;;;;;;;5068028;28;20044;-82
2022/04/07 03:03:55;;;;;;;25.50;6.10;;;;;;;;;;5059680;28;20037;-82
2022/04/07 03:06:22;;;;;;;21.00;5.90;;;;;;;;;;5075626;28;20161;-82
2022/04/07 03:08:48;;;;;;;17.48;5.43;;;;;;;;;;5083265;28;20036;-83
2022/04/07 03:11:14;;;;;;;23.40;7.50;;;;;;;;;;5074041;28;20040;-82
2022/04/07 03:13:40;;;;;;;22.92;6.00;;;;;;;;;;5065762;28;20044;-83
2022/04/07 03:16:09;;;;;;;22.90;5.63;;;;;;;;;;5070725;28;20041;-84
2022/04/07 03:18:38;;;;;;;19.15;4.97;;;;;;;;;;5068455;28;20396;-83
2022/04/07 03:21:04;;;;;;;21.95;5.68;;;;;;;;;;5075522;28;20044;-82
2022/04/07 03:23:30;;;;;;;19.70;5.35;;;;;;;;;;5066057;28;20075;-83
2022/04/07 03:25:59;;;;;;;27.27;6.40;;;;;;;;;;5080920;28;20091;-82
2022/04/07 03:28:25;;;;;;;23.42;6.35;;;;;;;;;;5066342;28;20083;-81
2022/04/07 03:30:51;;;;;;;19.60;5.97;;;;;;;;;;5066756;28;20557;-82
2022/04/07 03:33:17;;;;;;;21.38;6.45;;;;;;;;;;5064369;28;20052;-82
2022/04/07 03:35:43;;;;;;;20.27;5.90;;;;;;;;;;5080048;28;20047;-82
2022/04/07 03:38:09;;;;;;;25.85;6.60;;;;;;;;;;5079428;28;20055;-82
2022/04/07 03:40:35;;;;;;;21.52;6.57;;;;;;;;;;5056857;28;20037;-82
2022/04/07 03:43:02;;;;;;;22.30;6.10;;;;;;;;;;5071558;28;20045;-83
2022/04/07 03:45:28;;;;;;;27.23;6.82;;;;;;;;;;5070087;28;20044;-82
2022/04/07 03:47:54;;;;;;;27.40;6.57;;;;;;;;;;5065545;28;20135;-82
2022/04/07 03:50:20;;;;;;;23.38;6.63;;;;;;;;;;5062027;28;20045;-82
2022/04/07 03:52:46;;;;;;;31.08;7.53;;;;;;;;;;5065901;28;20059;-82
2022/04/07 03:55:12;;;;;;;25.45;7.78;;;;;;;;;;5057943;28;20048;-82
2022/04/07 03:57:38;;;;;;;30.67;7.32;;;;;;;;;;5090126;28;20165;-83
2022/04/07 04:00:05;;;;;;;29.05;7.20;;;;;;;;;;5068217;28;20484;-83
2022/04/07 04:02:31;;;;;;;21.52;6.13;;;;;;;;;;5062262;28;20064;-82
2022/04/07 04:04:57;;;;;;;26.30;6.95;;;;;;;;;;5069632;28;20044;-82
2022/04/07 04:07:23;;;;;;;27.48;6.53;;;;;;;;;;5064512;28;20041;-82
2022/04/07 04:09:49;;;;;;;31.17;7.53;;;;;;;;;;5067664;28;20045;-81
2022/04/07 04:12:15;;;;;;;29.77;7.60;;;;;;;;;;5075601;28;20544;-81
2022/04/07 04:14:41;;;;;;;23.45;6.55;;;;;;;;;;5075985;28;20040;-82
2022/04/07 04:17:07;;;;;;;33.78;9.23;;;;;;;;;;5063219;28;20596;-82
2022/04/07 04:19:33;;;;;;;31.15;7.78;;;;;;;;;;5085938;28;20099;-81
2022/04/07 04:22:00;;;;;;;27.63;8.02;;;;;;;;;;5069335;28;20052;-82
2022/04/07 04:24:26;;;;;;;29.58;7.45;;;;;;;;;;5077836;28;20040;-81
2022/04/07 04:26:52;;;;;;;32.85;8.10;;;;;;;;;;5067655;28;20068;-82
2022/04/07 04:29:18;;;;;;;34.47;8.02;;;;;;;;;;5087837;28;20480;-82
2022/04/07 04:31:44;;;;;;;28.23;6.55;;;;;;;;;;5080035;28;20087;-80
2022/04/07 04:34:10;;;;;;;23.95;6.82;;;;;;;;;;5073049;28;20036;-81
2022/04/07 04:36:36;;;;;;;36.67;8.68;;;;;;;;;;5081677;28;20048;-81
2022/04/07 04:39:03;;;;;;;37.40;8.30;;;;;;;;;;5087093;28;20044;-81
2022/04/07 04:41:29;;;;;;;23.38;5.95;;;;;;;;;;5073987;28;20044;-81
2022/04/07 04:43:55;;;;;;;22.27;6.05;;;;;;;;;;5083806;28;20047;-81
2022/04/07 04:46:21;;;;;;;25.33;6.35;;;;;;;;;;5071740;28;20656;-81
2022/04/07 04:48:47;;;;;;;20.85;5.07;;;;;;;;;;5073893;28;20044;-80
2022/04/07 04:51:13;;;;;;;22.10;5.65;;;;;;;;;;5068658;28;20496;-80
2022/04/07 04:53:39;;;;;;;14.18;3.80;;;;;;;;;;5090242;28;20063;-80
2022/04/07 04:56:06;;;;;;;18.58;4.55;;;;;;;;;;5070598;28;20480;-80
2022/04/07 04:58:32;;;;;;;11.35;3.17;;;;;;;;;;5067323;28;20476;-80
2022/04/07 05:00:58;;;;;;;13.93;3.35;;;;;;;;;;5089307;28;20102;-80
2022/04/07 05:03:29;;;;;;;12.15;3.08;;;;;;;;;;5074435;28;20432;-80
2022/04/07 05:05:55;;;;;;;11.25;3.13;;;;;;;;;;5073850;28;20052;-80
2022/04/07 05:08:21;;;;;;;16.30;3.58;;;;;;;;;;5085768;28;20052;-80
2022/04/07 05:10:48;;;;;;;16.23;3.35;;;;;;;;;;5066243;28;20045;-80
2022/04/07 05:13:14;;;;;;;15.60;3.28;;;;;;;;;;5073096;28;20076;-80
2022/04/07 05:15:40;;;;;;;10.95;2.67;;;;;;;;;;5075106;28;20060;-80
2022/04/07 05:18:06;;;;;;;19.65;3.63;;;;;;;;;;5065876;28;20037;-80
2022/04/07 05:20:32;;;;;;;14.93;4.63;;;;;;;;;;5075594;28;20125;-80
2022/04/07 05:22:58;;;;;;;18.42;3.53;;;;;;;;;;5072937;28;20139;-79
2022/04/07 05:25:24;;;;;;;12.00;2.60;;;;;;;;;;5064348;28;20400;-80
2022/04/07 05:27:50;;;;;;;18.30;3.90;;;;;;;;;;5070544;28;20048;-80
2022/04/07 05:30:16;;;;;;;18.13;3.78;;;;;;;;;;5070272;28;20048;-80
2022/04/07 05:32:43;;;;;;;15.45;3.38;;;;;;;;;;5066944;28;20064;-80
2022/04/07 05:35:10;;;;;;;15.52;3.30;;;;;;;;;;5070309;28;20127;-80
2022/04/07 05:37:36;;;;;;;16.30;2.80;;;;;;;;;;5075651;28;20125;-81
2022/04/07 05:40:02;;;;;;;12.35;3.03;;;;;;;;;;5071031;28;20044;-80
2022/04/07 05:42:28;;;;;;;9.73;2.60;;;;;;;;;;5054045;28;20441;-80
2022/04/07 05:44:54;;;;;;;11.23;3.25;;;;;;;;;;5067473;28;20127;-80
2022/04/07 05:47:20;;;;;;;12.98;3.20;;;;;;;;;;5078386;28;20470;-79
2022/04/07 05:49:47;;;;;;;14.90;3.42;;;;;;;;;;5078712;28;20036;-81
2022/04/07 05:52:13;;;;;;;15.80;3.40;;;;;;;;;;5057512;28;20063;-82
2022/04/07 05:54:39;;;;;;;9.50;2.55;;;;;;;;;;5037023;28;20073;-82
2022/04/07 05:57:06;;;;;;;9.20;2.50;;;;;;;;;;5045613;28;20095;-82
2022/04/07 05:59:32;;;;;;;9.90;3.30;;;;;;;;;;5010854;28;20046;-81
2022/04/07 06:01:58;;;;;;;9.30;2.95;;;;;;;;;;5005826;28;20552;-82
2022/04/07 06:04:24;;;;;;;7.15;2.47;;;;;;;;;;5017220;28;20556;-82
2022/04/07 06:06:50;;;;;;;9.15;2.60;;;;;;;;;;5013196;28;20125;-80
2022/04/07 06:09:16;;;;;;;7.60;2.55;;;;;;;;;;5011359;28;20041;-80
2022/04/07 06:11:42;;;;;;;6.28;2.40;;;;;;;;;;5010821;28;20041;-80
2022/04/07 06:14:08;;;;;;;6.00;2.38;;;;;;;;;;5006638;28;20069;-82
2022/04/07 06:16:34;;;;;;;11.80;2.83;;;;;;;;;;5005800;28;20042;-80
2022/04/07 06:19:00;;;;;;;10.52;2.72;;;;;;;;;;5003148;28;20046;-80
2022/04/07 06:21:29;;;;;;;7.18;2.50;;;;;;;;;;5010150;28;20042;-81
2022/04/07 06:23:57;;;;;;;14.02;2.70;;;;;;;;;;5010052;28;20116;-80
2022/04/07 06:26:23;;;;;;;10.30;2.38;;;;;;;;;;5006516;28;20125;-81
2022/04/07 06:28:49;;;;;;;9.23;2.58;;;;;;;;;;5007615;28;20141;-80
2022/04/07 06:31:15;;;;;;;9.23;2.50;;;;;;;;;;5006909;28;20525;-80
2022/04/07 06:33:41;;;;;;;13.00;3.03;;;;;;;;;;5008581;28;20513;-80
2022/04/07 06:36:07;;;;;;;10.05;2.45;;;;;;;;;;5006800;28;20048;-80
2022/04/07 06:38:33;;;;;;;9.63;2.85;;;;;;;;;;5039556;28;20096;-81
2022/04/07 06:41:02;;;;;;;9.68;2.60;;;;;;;;;;5005811;28;20042;-80
2022/04/07 06:43:29;;;;;;;9.73;2.80;;;;;;;;;;5008336;28;20053;-81
2022/04/07 06:45:55;;;;;;;8.48;2.35;;;;;;;;;;5000531;28;20058;-80
2022/04/07 06:48:21;;;;;;;5.75;2.42;;;;;;;;;;5006725;28;20044;-81
2022/04/07 06:50:47;;;;;;;6.85;2.30;;;;;;;;;;5009766;28;20046;-80
2022/04/07 06:53:13;;;;;;;7.82;2.83;;;;;;;;;;5003945;28;20073;-81
2022/04/07 06:55:40;;;;;;;11.43;2.75;;;;;;;;;;5007217;28;20120;-81
2022/04/07 06:58:08;;;;;;;10.00;2.97;;;;;;;;;;5043307;28;20044;-81
2022/04/07 07:00:35;;;;;;;7.05;2.50;;;;;;;;;;5008644;28;20482;-80
2022/04/07 07:03:07;;;;;;;11.98;3.10;;;;;;;;;;5009707;28;20077;-80
2022/04/07 07:05:34;;;;;;;9.80;2.70;;;;;;;;;;5035935;28;20057;-81
2022/04/07 07:08:15;;;;;;;13.35;3.13;;;;;;;;;;5005966;28;20074;-81
2022/04/07 07:10:42;;;;;;;7.75;2.92;;;;;;;;;;5043308;28;20088;-81
2022/04/07 07:13:08;;;;;;;9.15;2.72;;;;;;;;;;5009218;28;20046;-81
2022/04/07 07:15:35;;;;;;;8.40;2.60;;;;;;;;;;5007438;28;20090;-79
2022/04/07 07:18:01;;;;;;;13.40;3.00;;;;;;;;;;5011971;28;20040;-81
2022/04/07 07:20:27;;;;;;;9.77;2.53;;;;;;;;;;5009657;28;20100;-81
2022/04/07 07:22:53;;;;;;;8.35;2.95;;;;;;;;;;5010451;28;20046;-81
2022/04/07 07:25:19;;;;;;;14.52;3.25;;;;;;;;;;5010021;28;20049;-81
2022/04/07 07:27:46;;;;;;;8.90;3.05;;;;;;;;;;5013337;28;20132;-81
2022/04/07 07:30:15;;;;;;;11.95;3.05;;;;;;;;;;5008219;28;20050;-81
2022/04/07 07:32:41;;;;;;;10.68;3.25;;;;;;;;;;5008129;28;20045;-81
2022/04/07 07:35:08;;;;;;;9.55;2.97;;;;;;;;;;5006289;28;20038;-80
2022/04/07 07:37:34;;;;;;;10.52;3.28;;;;;;;;;;5003319;28;20046;-81
2022/04/07 07:40:07;;;;;;;9.88;3.28;;;;;;;;;;5002118;28;20044;-80
2022/04/07 07:42:36;;;;;;;8.82;2.70;;;;;;;;;;5009780;28;20074;-81
2022/04/07 07:45:02;;;;;;;9.93;2.88;;;;;;;;;;5008801;28;20591;-81
2022/04/07 07:47:28;;;;;;;12.02;3.42;;;;;;;;;;5008123;28;20044;-80
2022/04/07 07:49:54;;;;;;;14.63;3.40;;;;;;;;;;5009246;28;20042;-82
2022/04/07 07:52:20;;;;;;;7.78;3.05;;;;;;;;;;5001666;28;20048;-80
2022/04/07 07:54:46;;;;;;;11.18;3.53;;;;;;;;;;5002964;28;20129;-81
2022/04/07 07:57:12;;;;;;;16.70;3.63;;;;;;;;;;5010394;28;20446;-81
2022/04/07 07:59:38;;;;;;;10.18;3.10;;;;;;;;;;5014340;28;20542;-82
2022/04/07 08:02:05;;;;;;;8.48;2.75;;;;;;;;;;5008680;28;20133;-81
2022/04/07 08:04:31;;;;;;;13.10;3.58;;;;;;;;;;5011330;28;20042;-81
2022/04/07 08:06:58;;;;;;;11.88;3.15;;;;;;;;;;5010724;28;20417;-81
2022/04/07 08:09:24;;;;;;;11.38;3.20;;;;;;;;;;5006620;28;20397;-81
2022/04/07 08:11:50;;;;;;;13.38;3.58;;;;;;;;;;5008289;28;20128;-81
2022/04/07 08:14:16;;;;;;;15.07;3.22;;;;;;;;;;5012439;28;20128;-82
2022/04/07 08:16:43;;;;;;;11.40;3.22;;;;;;;;;;5002938;28;20037;-82
2022/04/07 08:19:09;;;;;;;11.40;3.47;;;;;;;;;;5007824;28;20319;-81
2022/04/07 08:21:36;;;;;;;11.55;2.83;;;;;;;;;;5007366;28;20046;-81
2022/04/07 08:24:02;;;;;;;10.80;3.00;;;;;;;;;;5010491;28;20498;-82
2022/04/07 08:26:28;;;;;;;8.43;2.50;;;;;;;;;;5003819;28;20043;-82
2022/04/07 08:28:54;;;;;;;10.70;2.95;;;;;;;;;;5007980;28;20060;-81
2022/04/07 08:31:20;;;;;;;9.23;2.75;;;;;;;;;;5007405;28;20458;-81
2022/04/07 08:33:46;;;;;;;11.75;3.33;;;;;;;;;;5015430;28;20042;-82
2022/04/07 08:36:12;;;;;;;9.10;3.08;;;;;;;;;;5012059;28;20144;-81
2022/04/07 08:38:38;;;;;;;8.45;2.97;;;;;;;;;;5009647;28;20049;-81
2022/04/07 08:41:08;;;;;;;11.23;3.53;;;;;;;;;;5012999;28;20050;-81
2022/04/07 08:43:38;;;;;;;13.50;3.42;;;;;;;;;;5042374;28;20054;-82
2022/04/07 08:46:06;;;;;;;15.25;3.90;;;;;;;;;;5011619;28;20095;-82
2022/04/07 08:48:32;;;;;;;15.60;3.65;;;;;;;;;;5011673;28;20073;-81
2022/04/07 08:51:00;;;;;;;11.88;3.50;;;;;;;;;;5010399;28;20421;-81
2022/04/07 08:53:26;;;;;;;10.80;3.55;;;;;;;;;;5011431;28;20498;-80
2022/04/07 08:55:52;;;;;;;9.73;3.47;;;;;;;;;;5011830;28;20087;-81
2022/04/07 08:58:18;;;;;;;10.63;3.20;;;;;;;;;;5009718;28;20136;-81
2022/04/07 09:00:45;;;;;;;8.60;2.97;;;;;;;;;;5009115;28;20089;-81
2022/04/07 09:03:11;;;;;;;10.75;3.28;;;;;;;;;;5010431;28;20038;-82
2022/04/07 09:05:51;;;;;;;12.77;3.55;;;;;;;;;;5011512;28;20056;-81
2022/04/07 09:08:18;;;;;;;9.90;3.10;;;;;;;;;;5006045;28;20069;-82
2022/04/07 09:10:52;;;;;;;9.75;3.53;;;;;;;;;;5020324;28;20478;-82
2022/04/07 09:13:18;;;;;;;9.77;3.03;;;;;;;;;;5011462;28;20046;-81
2022/04/07 09:15:45;;;;;;;13.73;3.17;;;;;;;;;;5009735;28;20062;-81
2022/04/07 09:18:11;;;;;;;11.13;3.38;;;;;;;;;;5010252;28;20045;-81
2022/04/07 09:20:42;;;;;;;7.65;3.45;;;;;;;;;;5014447;28;20422;-82
2022/04/07 09:23:11;;;;;;;10.35;3.90;;;;;;;;;;5004199;28;20413;-81
2022/04/07 09:25:41;;;;;;;12.43;3.55;;;;;;;;;;5011427;28;20135;-82
2022/04/07 09:28:11;;;;;;;10.57;3.63;;;;;;;;;;5010265;28;20143;-82
2022/04/07 09:30:41;;;;;;;15.73;4.10;;;;;;;;;;5011612;28;20049;-81
2022/04/07 09:33:19;;;;;;;14.70;3.65;;;;;;;;;;5009338;28;20668;-81
2022/04/07 09:35:59;;;;;;;10.88;3.33;;;;;;;;;;5017521;28;20152;-82
2022/04/07 09:38:25;;;;;;;14.45;3.92;;;;;;;;;;5009525;28;20050;-82
2022/04/07 09:40:52;;;;;;;16.23;4.03;;;;;;;;;;5008419;28;20053;-81
2022/04/07 09:43:18;;;;;;;11.85;4.05;;;;;;;;;;5009108;28;20050;-82
2022/04/07 09:45:47;;;;;;;18.13;4.13;;;;;;;;;;5014344;28;20331;-82
2022/04/07 09:48:20;;;;;;;12.27;3.50;;;;;;;;;;5003848;28;20422;-82
2022/04/07 09:51:04;;;;;;;14.05;3.70;;;;;;;;;;5011685;28;20486;-82
2022/04/07 09:53:35;;;;;;;10.85;3.55;;;;;;;;;;5010956;28;20057;-81
2022/04/07 09:56:01;;;;;;;10.95;4.28;;;;;;;;;;5008227;28;20045;-82
2022/04/07 09:58:28;;;;;;;13.93;3.95;;;;;;;;;;5010701;28;20518;-82
2022/04/07 10:00:56;;;;;;;10.70;3.70;;;;;;;;;;5009549;28;20053;-82
2022/04/07 10:03:22;;;;;;;10.65;3.42;;;;;;;;;;5008555;28;20176;-82
2022/04/07 10:05:49;;;;;;;15.00;4.25;;;;;;;;;;5015878;28;20117;-83
2022/04/07 10:08:16;;;;;;;14.45;3.75;;;;;;;;;;5043684;28;20048;-82
2022/04/07 10:10:43;;;;;;;13.48;4.10;;;;;;;;;;5013981;28;20052;-82
2022/04/07 10:13:09;;;;;;;13.88;3.75;;;;;;;;;;5009596;28;20045;-82
2022/04/07 10:15:38;;;;;;;12.07;4.03;;;;;;;;;;5015429;28;20045;-83
2022/04/07 10:18:09;;;;;;;17.23;4.45;;;;;;;;;;5006896;28;20042;-83
2022/04/07 10:20:37;;;;;;;9.57;3.08;;;;;;;;;;5012080;28;20053;-82
2022/04/07 10:23:03;;;;;;;12.15;4.00;;;;;;;;;;5039603;28;20048;-82
2022/04/07 10:25:31;;;;;;;17.95;3.95;;;;;;;;;;5012717;28;20050;-81
2022/04/07 10:27:59;;;;;;;14.38;4.40;;;;;;;;;;5008173;28;20058;-81
2022/04/07 10:30:29;;;;;;;14.18;3.92;;;;;;;;;;5040802;28;20058;-81
2022/04/07 10:32:58;;;;;;;11.63;3.42;;;;;;;;;;5006400;28;20442;-81
2022/04/07 10:35:36;;;;;;;18.90;4.43;;;;;;;;;;5008923;28;20576;-81
2022/04/07 10:38:11;;;;;;;8.82;3.35;;;;;;;;;;5009255;28;20053;-81
2022/04/07 10:40:49;;;;;;;14.07;4.13;;;;;;;;;;5006021;28;20064;-81
2022/04/07 10:43:17;;;;;;;17.80;4.05;;;;;;;;;;5008067;28;20042;-81
2022/04/07 10:45:44;;;;;;;11.68;3.45;;;;;;;;;;5011265;28;20117;-81
2022/04/07 10:48:20;;;;;;;12.30;3.70;;;;;;;;;;5006818;28;20088;-82
2022/04/07 10:50:50;;;;;;;11.05;3.40;;;;;;;;;;5006906;28;20569;-81
2022/04/07 10:53:18;;;;;;;17.25;4.13;;;;;;;;;;5007864;28;20042;-82
2022/04/07 10:56:13;;;;;;;8.38;3.42;;;;;;;;;;5006934;28;20115;-82
2022/04/07 10:58:39;;;;;;;10.07;3.78;;;;;;;;;;4988907;28;20046;-82
2022/04/07 11:01:06;;;;;;;17.00;3.80;;;;;;;;;;5010346;28;20037;-82
2022/04/07 11:03:32;;;;;;;14.00;4.15;;;;;;;;;;5009607;28;20046;-81
2022/04/07 11:06:03;;;;;;;14.18;4.07;;;;;;;;;;5013477;28;20045;-80
2022/04/07 11:08:30;;;;;;;12.52;3.67;;;;;;;;;;5007803;28;20045;-80
2022/04/07 11:10:56;;;;;;;12.15;3.50;;;;;;;;;;5010337;28;20398;-80
2022/04/07 11:13:42;;;;;;;11.57;3.67;;;;;;;;;;5036446;28;20045;-80
2022/04/07 11:16:14;;;;;;;11.48;3.58;;;;;;;;;;5035294;28;20061;-81
2022/04/07 11:18:46;;;;;;;14.90;4.68;;;;;;;;;;5006683;28;20173;-81
2022/04/07 11:21:12;;;;;;;10.32;3.17;;;;;;;;;;5007019;28;20482;-80
2022/04/07 11:23:41;;;;;;;14.45;4.38;;;;;;;;;;5008865;28;20088;-82
2022/04/07 11:26:11;;;;;;;13.48;4.10;;;;;;;;;;5010013;28;20124;-81
2022/04/07 11:28:37;;;;;;;10.68;3.40;;;;;;;;;;5008377;28;20058;-82
2022/04/07 11:31:07;;;;;;;13.30;4.07;;;;;;;;;;5006180;28;20081;-82
2022/04/07 11:33:36;;;;;;;12.05;3.92;;;;;;;;;;5008994;28;20068;-81
2022/04/07 11:36:04;;;;;;;15.77;4.07;;;;;;;;;;5036562;28;20129;-82
2022/04/07 11:38:36;;;;;;;10.10;3.47;;;;;;;;;;5007605;28;20117;-80
2022/04/07 11:41:12;;;;;;;10.65;3.58;;;;;;;;;;5012802;28;20048;-80
2022/04/07 11:43:38;;;;;;;15.15;3.70;;;;;;;;;;5005253;28;20045;-81
2022/04/07 11:46:05;;;;;;;17.30;4.18;;;;;;;;;;5009329;28;20038;-81
2022/04/07 11:48:31;;;;;;;12.25;4.05;;;;;;;;;;5004781;28;20490;-80
2022/04/07 11:51:01;;;;;;;14.80;4.72;;;;;;;;;;5006737;28;20041;-80
2022/04/07 11:53:27;;;;;;;10.90;3.25;;;;;;;;;;5006818;28;20081;-81
2022/04/07 11:55:54;;;;;;;7.57;2.90;;;;;;;;;;5008304;28;20043;-81
2022/04/07 11:58:19;;;;;;;15.15;3.08;;;;;;;;;;5008736;28;20052;-82
2022/04/07 12:00:46;;;;;;;10.02;3.20;;;;;;;;;;5006603;28;20393;-81
2022/04/07 12:03:12;;;;;;;12.85;3.65;;;;;;;;;;5011689;28;20517;-80
2022/04/07 12:05:39;;;;;;;13.73;3.13;;;;;;;;;;5005061;28;20461;-81
2022/04/07 12:08:11;;;;;;;10.70;3.80;;;;;;;;;;5009724;28;20042;-81
2022/04/07 12:10:42;;;;;;;17.73;4.07;;;;;;;;;;5006046;28;20132;-82
2022/04/07 12:13:08;;;;;;;17.02;4.50;;;;;;;;;;5011357;28;20129;-82
2022/04/07 12:15:35;;;;;;;17.38;5.03;;;;;;;;;;5006928;28;20131;-81
2022/04/07 12:18:06;;;;;;;13.13;3.90;;;;;;;;;;5045118;28;20062;-81
2022/04/07 12:20:33;;;;;;;13.30;3.40;;;;;;;;;;5004526;28;20096;-81
2022/04/07 12:23:08;;;;;;;7.65;2.97;;;;;;;;;;5012731;28;20061;-81
2022/04/07 12:25:35;;;;;;;9.48;3.63;;;;;;;;;;5013078;28;20034;-81
2022/04/07 12:28:08;;;;;;;14.35;4.00;;;;;;;;;;5006306;28;20057;-80
2022/04/07 12:30:44;;;;;;;13.85;3.42;;;;;;;;;;5007713;28;20050;-80
2022/04/07 12:33:10;;;;;;;11.98;3.90;;;;;;;;;;5039035;28;20042;-80
2022/04/07 12:35:46;;;;;;;16.25;3.58;;;;;;;;;;5008560;28;20149;-81
2022/04/07 12:38:12;;;;;;;11.02;3.00;;;;;;;;;;5001456;28;20057;-81
2022/04/07 12:40:39;;;;;;;15.07;3.60;;;;;;;;;;5009256;28;20124;-81
2022/04/07 12:43:05;;;;;;;15.60;4.28;;;;;;;;;;5005433;28;20054;-80
2022/04/07 12:45:31;;;;;;;16.85;3.83;;;;;;;;;;5008836;28;20052;-79
2022/04/07 12:48:18;;;;;;;16.65;4.07;;;;;;;;;;5008132;28;20042;-77
2022/04/07 12:50:44;;;;;;;17.00;4.07;;;;;;;;;;5006460;28;20077;-80
2022/04/07 12:53:34;;;;;;;16.33;4.03;;;;;;;;;;5005376;28;20045;-76
2022/04/07 12:56:02;;;;;;;15.80;3.75;;;;;;;;;;5008047;28;20050;-76
2022/04/07 12:58:29;;;;;;;16.02;3.80;;;;;;;;;;5012721;28;20047;-76
2022/04/07 13:01:02;;;;;;;11.68;3.20;;;;;;;;;;5007456;28;20140;-76
2022/04/07 13:03:28;;;;;;;11.65;2.92;;;;;;;;;;5011419;28;20054;-77
2022/04/07 13:05:55;;;;;;;15.13;4.28;;;;;;;;;;5009375;28;20402;-79
2022/04/07 13:08:21;;;;;;;20.30;4.45;;;;;;;;;;5012789;28;20049;-78
2022/04/07 13:10:47;;;;;;;14.55;4.00;;;;;;;;;;5006718;28;20053;-78
2022/04/07 13:13:15;;;;;;;14.60;3.95;;;;;;;;;;5010161;28;20046;-78
2022/04/07 13:15:41;;;;;;;11.55;2.65;;;;;;;;;;5040376;28;20054;-77
2022/04/07 13:18:07;;;;;;;7.20;2.90;;;;;;;;;;5002283;28;20141;-78
2022/04/07 13:20:33;;;;;;;12.80;3.53;;;;;;;;;;5045138;28;20042;-78
2022/04/07 13:22:59;;;;;;;10.60;2.90;;;;;;;;;;5018130;28;20041;-79
2022/04/07 13:25:25;;;;;;;9.65;4.13;;;;;;;;;;5012437;28;20060;-78
2022/04/07 13:27:51;;;;;;;12.30;3.85;;;;;;;;;;5020505;28;20486;-81
2022/04/07 13:30:17;;;;;;;14.90;3.70;;;;;;;;;;5011887;28;20084;-80
2022/04/07 13:32:43;;;;;;;10.68;3.53;;;;;;;;;;5009335;28;20046;-78
2022/04/07 13:35:10;;;;;;;17.30;3.95;;;;;;;;;;5010476;28;20053;-78
2022/04/07 13:37:36;;;;;;;24.08;4.53;;;;;;;;;;5015002;28;20129;-79
2022/04/07 13:40:02;;;;;;;17.70;4.45;;;;;;;;;;5011539;28;20034;-80
2022/04/07 13:42:29;;;;;;;11.60;4.60;;;;;;;;;;5010353;28;20395;-79
2022/04/07 13:44:55;;;;;;;13.48;4.00;;;;;;;;;;5016910;28;20041;-79
2022/04/07 13:47:21;;;;;;;11.77;4.03;;;;;;;;;;5002097;28;20104;-80
2022/04/07 13:49:47;;;;;;;11.52;3.65;;;;;;;;;;5010090;28;20553;-80
2022/04/07 13:52:13;;;;;;;14.07;4.20;;;;;;;;;;5009366;28;20073;-80
2022/04/07 13:54:39;;;;;;;11.65;5.10;;;;;;;;;;5003332;28;20084;-81
2022/04/07 13:57:05;;;;;;;11.88;3.63;;;;;;;;;;5007843;28;20042;-82
2022/04/07 13:59:33;;;;;;;11.90;3.33;;;;;;;;;;5047892;28;20049;-81
2022/04/07 14:02:00;;;;;;;11.60;3.70;;;;;;;;;;5010034;28;20157;-81
2022/04/07 14:04:26;;;;;;;12.55;3.80;;;;;;;;;;5015436;28;20545;-81
2022/04/07 14:06:52;;;;;;;13.90;4.07;;;;;;;;;;5007831;28;20073;-81
2022/04/07 14:09:18;;;;;;;9.88;3.20;;;;;;;;;;5040700;28;20054;-80
2022/04/07 14:11:44;;;;;;;12.05;3.78;;;;;;;;;;5011130;28;20393;-80
2022/04/07 14:14:10;;;;;;;8.57;3.33;;;;;;;;;;5008476;28;20038;-81
2022/04/07 14:16:38;;;;;;;9.65;3.33;;;;;;;;;;5007359;28;20065;-81
2022/04/07 14:19:04;;;;;;;11.57;3.70;;;;;;;;;;5008902;28;20034;-80
2022/04/07 14:21:31;;;;;;;14.35;3.72;;;;;;;;;;5009128;28;20042;-78
2022/04/07 14:23:57;;;;;;;14.13;3.45;;;;;;;;;;5013400;28;20057;-78
2022/04/07 14:26:24;;;;;;;11.40;3.85;;;;;;;;;;5008820;28;20108;-78
2022/04/07 14:28:50;;;;;;;13.40;3.75;;;;;;;;;;5006674;28;20394;-78
2022/04/07 14:31:16;;;;;;;10.90;3.40;;;;;;;;;;5010217;28;20479;-77